Terminal Aerodrome Forecast
Issued by NWS

Home | Current Version | Previous Version | Text Only | Print | Product List | Glossary On
Versions: 1 2 3 4 5 6 7 8 9 10 11 12 13 14 15 16 17 18 19
000
FTUS45 KRIW 251739
TAFJAC
TAF
KJAC 251739Z 2518/2618 22012G18KT 6SM -SHRA VCTS SCT035CB
      TEMPO 2518/2520 OVC035CB
     FM260300 VRB06KT P6SM VCSH BKN035
      AMD LTD TO CLD VIS AND WIND=

USA.gov is the U.S. government's official web portal to all federal, state and local government web resources and services.